Hauptseite
METAR-TAF:

METAR-TAF

Flughäfen :

Tiree Airport

Tiree, Schottland

Breite: 56-30N, Länge: 006-53W, Höhe: 12 m

Beobachtung

Neuester Wetterbericht von vor 28 Minuten, um 18:50 UTC
Wind 8 kt aus Nordwest
Temperatur 14°C
Luftfeuchtigkeit 82%
Luftdruck 1018 hPa
Sichtweite 10 km oder mehr

METAR: EGPU 191850Z AUTO 32008KT 9999 NCD 14/11 Q1018

Zeit: 20:18 (19:18 UTC)

Prognose

Neuester Wetterbericht von vor 5 Stunden und 16 Minuten, um 14:02 UTC
Gültige Prognose vom 19 um 15 UTC bis 19 um 18 UTC
Wind 9 kt aus Nordwest
Sichtweite 10 km oder mehr
Leicht bewölkt in der Höhe von 2500 ft
Aufgelockert bewölkt in der Höhe von 4500 ft

TAF: EGPU 191402Z 1915/1918 32009KT 9999 FEW025 SCT045

Wetterbeobachtungen und Prognosen von mehr als 4000 Flughäfen (METAR und TAF Bericht).

Die verfügbaren Stationen werden durch gelbe und rote Markierungen auf der Karte dargestellt.

Führen Sie die Maus auf sie, um den Namen der Station zu sehen.

Darauf klicken, um die Beobachtung von Wetterbeobachtungen und Prognosen zu sehen.

Um die Karte zu ändern : klicken Sie auf den grünen Tasten mit einem schwarzen Kreuz Zum Vergrößern, auf den grünen Button mit einem Gedankenstrich zu verkleinern, oder auf die grünen Pfeile für benachbarte Karten.


METAR-TAF: